createdAt,value
2023-03-15T00:04:52.463Z,2.51
2023-03-15T00:09:48.483Z,2.48
2023-03-15T00:14:48.326Z,2.51
2023-03-15T00:19:47.543Z,2.52
2023-03-15T00:24:47.245Z,2.51
2023-03-15T00:29:55.264Z,2.45
2023-03-15T00:34:54.732Z,2.47
2023-03-15T00:39:55.851Z,2.45
2023-03-15T00:44:52.525Z,2.38
2023-03-15T00:49:52.280Z,2.34
2023-03-15T00:54:52.481Z,2.33
2023-03-15T00:59:08.451Z,2.34
2023-03-15T01:04:08.525Z,2.34
2023-03-15T01:09:07.797Z,2.32
2023-03-15T01:14:07.734Z,2.28
2023-03-15T01:19:06.941Z,2.21
2023-03-15T01:24:06.700Z,2.18
2023-03-15T01:29:06.544Z,2.1
2023-03-15T01:34:06.398Z,2.01
2023-03-15T01:39:07.366Z,1.89
2023-03-15T01:44:03.748Z,1.82
2023-03-15T01:49:03.611Z,1.75
2023-03-15T01:54:03.136Z,1.69
2023-03-15T01:58:48.957Z,1.63
2023-03-15T02:03:46.947Z,1.62
2023-03-15T02:08:46.512Z,1.71
2023-03-15T02:13:46.455Z,1.76
2023-03-15T02:18:57.504Z,1.73
2023-03-15T02:23:54.530Z,1.71
2023-03-15T02:28:54.177Z,1.72
2023-03-15T02:33:55.833Z,1.7
2023-03-15T02:38:52.711Z,1.69
2023-03-15T02:43:52.710Z,1.69
2023-03-15T02:48:52.845Z,1.7
2023-03-15T02:53:50.461Z,1.63
2023-03-15T02:58:50.040Z,1.55
2023-03-15T03:03:49.870Z,1.5
2023-03-15T03:08:38.454Z,1.44
2023-03-15T03:13:38.255Z,1.39
2023-03-15T03:18:38.111Z,1.33
2023-03-15T03:23:38.057Z,1.27
2023-03-15T03:28:39.719Z,1.21
2023-03-15T03:33:35.532Z,1.13
2023-03-15T03:38:35.397Z,1.07
2023-03-15T03:43:34.741Z,1.07
2023-03-15T03:48:34.708Z,1.04
2023-03-15T03:53:32.352Z,1.02
2023-03-15T03:58:31.956Z,0.96
2023-03-15T03:59:53.931Z,0.94
2023-03-15T04:04:54.931Z,0.89
2023-03-15T04:09:51.483Z,0.88
2023-03-15T04:14:51.650Z,0.83
2023-03-15T04:19:50.619Z,0.79
2023-03-15T04:24:50.784Z,0.76
2023-03-15T04:29:48.125Z,0.71
2023-03-15T04:34:47.801Z,0.74
2023-03-15T04:39:47.155Z,0.7
2023-03-15T04:44:46.865Z,0.65
2023-03-15T04:49:46.047Z,0.58
2023-03-15T04:54:45.710Z,0.56
2023-03-15T04:58:54.032Z,0.58
2023-03-15T05:03:53.785Z,0.58
2023-03-15T05:08:54.723Z,0.55
2023-03-15T05:13:51.431Z,0.57
2023-03-15T05:18:51.262Z,0.52
2023-03-15T05:23:50.624Z,0.5
2023-03-15T05:28:50.642Z,0.51
2023-03-15T05:33:48.852Z,0.52
2023-03-15T05:38:49.109Z,0.52
2023-03-15T05:43:48.307Z,0.5
2023-03-15T05:48:49.663Z,0.52
2023-03-15T05:53:46.432Z,0.54
2023-03-15T05:58:45.899Z,0.56
2023-03-15T06:03:55.840Z,0.56
2023-03-15T06:08:56.379Z,0.58
2023-03-15T06:13:53.430Z,0.62
2023-03-15T06:18:53.381Z,0.73
2023-03-15T06:23:54.724Z,0.86
2023-03-15T06:28:51.826Z,0.98
2023-03-15T06:33:51.464Z,1.17
2023-03-15T06:38:51.911Z,1.36
2023-03-15T06:43:49.874Z,1.61
2023-03-15T06:48:49.873Z,1.8
2023-03-15T06:53:49.753Z,1.98
2023-03-15T06:58:38.576Z,2.14
2023-03-15T07:03:38.604Z,2.3
2023-03-15T07:08:37.900Z,2.53
2023-03-15T07:13:38.722Z,2.73
2023-03-15T07:18:36.600Z,2.89
2023-03-15T07:23:36.709Z,3.15
2023-03-15T07:28:36.036Z,3.38
2023-03-15T07:33:36.134Z,3.42
2023-03-15T07:38:35.484Z,3.4
2023-03-15T07:43:35.390Z,3.63
2023-03-15T07:48:35.564Z,3.63
2023-03-15T07:53:35.099Z,3.68
2023-03-15T07:58:36.171Z,3.65
2023-03-15T07:59:56.968Z,3.62
2023-03-15T08:04:57.037Z,3.75
2023-03-15T08:09:56.368Z,3.85
2023-03-15T08:14:56.567Z,4.01
2023-03-15T08:19:54.204Z,4.38
2023-03-15T08:24:54.447Z,4.56
2023-03-15T08:29:53.800Z,4.75
2023-03-15T08:34:53.806Z,4.82
2023-03-15T08:39:53.238Z,5.1
2023-03-15T08:44:52.986Z,5.04
2023-03-15T08:49:52.553Z,5.02
2023-03-15T08:54:52.907Z,5.29
2023-03-15T08:59:16.699Z,5.74
2023-03-15T09:04:11.760Z,5.98
2023-03-15T09:09:10.980Z,5.9
2023-03-15T09:14:10.611Z,5.86
2023-03-15T09:19:09.676Z,5.72
2023-03-15T09:24:09.470Z,5.74
2023-03-15T09:29:09.355Z,5.97
2023-03-15T09:34:09.257Z,6.12
2023-03-15T09:39:10.437Z,6.48
2023-03-15T09:44:06.914Z,6.53
2023-03-15T09:49:07.125Z,6.43
2023-03-15T09:54:06.479Z,6.3
2023-03-15T09:58:52.356Z,6.25
2023-03-15T10:03:50.066Z,6.33
2023-03-15T10:08:49.563Z,6.57
2023-03-15T10:13:49.249Z,6.71
2023-03-15T10:18:49.003Z,7.08
2023-03-15T10:23:48.634Z,7.46
2023-03-15T10:28:49.308Z,7.48
2023-03-15T10:33:48.681Z,7.68
2023-03-15T10:38:48.815Z,7.42
2023-03-15T10:43:46.002Z,6.91
2023-03-15T10:48:56.748Z,6.44
2023-03-15T10:53:55.606Z,6.23
2023-03-15T10:59:11.301Z,6.06
2023-03-15T11:03:52.972Z,5.93
2023-03-15T11:08:52.521Z,5.66
2023-03-15T11:13:53.901Z,5.44
2023-03-15T11:18:50.914Z,5.05
2023-03-15T11:23:50.417Z,4.71
2023-03-15T11:28:50.586Z,4.58
2023-03-15T11:33:38.057Z,4.46
2023-03-15T11:38:38.020Z,4.48
2023-03-15T11:43:37.170Z,4.67
2023-03-15T11:48:36.955Z,4.91
2023-03-15T11:53:36.269Z,5.21
2023-03-15T11:58:36.156Z,5.33
2023-03-15T12:03:36.378Z,5.36
2023-03-15T12:08:36.856Z,5.43
2023-03-15T12:13:34.175Z,5.56
2023-03-15T12:18:34.093Z,5.66
2023-03-15T12:23:33.466Z,5.73
2023-03-15T12:28:33.526Z,5.72
2023-03-15T12:33:32.906Z,5.74
2023-03-15T12:38:32.792Z,5.65
2023-03-15T12:43:32.712Z,5.62
2023-03-15T12:48:32.489Z,5.69
2023-03-15T12:53:33.534Z,5.85
2023-03-15T12:58:29.942Z,6.09
2023-03-15T12:59:51.535Z,6.14
2023-03-15T13:04:50.922Z,6.36
2023-03-15T13:09:50.972Z,6.65
2023-03-15T13:14:48.522Z,6.75
2023-03-15T13:19:48.427Z,6.56
2023-03-15T13:24:48.060Z,6.26
2023-03-15T13:29:47.410Z,5.9
2023-03-15T13:34:46.938Z,5.72
2023-03-15T13:39:46.421Z,5.59
2023-03-15T13:44:46.260Z,5.58
2023-03-15T13:49:46.088Z,5.76
2023-03-15T13:54:54.341Z,6.42
2023-03-15T13:59:10.700Z,6.58
2023-03-15T14:04:10.262Z,6.47
2023-03-15T14:09:10.276Z,6.32
2023-03-15T14:14:07.668Z,6.22
2023-03-15T14:19:07.392Z,6.02
2023-03-15T14:24:06.736Z,5.73
2023-03-15T14:29:06.353Z,5.73
2023-03-15T14:34:06.302Z,5.77
2023-03-15T14:39:05.526Z,5.89
2023-03-15T14:44:04.740Z,6.19
2023-03-15T14:49:04.319Z,6.36
2023-03-15T14:54:05.765Z,6.66
2023-03-15T14:58:49.480Z,6.73
2023-03-15T15:03:49.753Z,6.56
2023-03-15T15:08:48.926Z,6.48
2023-03-15T15:13:48.726Z,6.44
2023-03-15T15:18:46.296Z,6.26
2023-03-15T15:23:58.709Z,6.34
2023-03-15T15:28:47.561Z,6.67
2023-03-15T15:33:54.796Z,6.62
2023-03-15T15:38:54.130Z,6.38
2023-03-15T15:43:54.600Z,6.28
2023-03-15T15:48:52.552Z,6.63
2023-03-15T15:53:52.556Z,7.05
2023-03-15T15:58:52.713Z,7.36
2023-03-15T16:03:51.658Z,7.65
2023-03-15T16:08:52.519Z,7.69
2023-03-15T16:13:52.434Z,7.55
2023-03-15T16:18:52.897Z,7.29
2023-03-15T16:23:49.867Z,7.19
2023-03-15T16:28:49.832Z,6.94
2023-03-15T16:33:51.190Z,6.62
2023-03-15T16:38:37.400Z,6.32
2023-03-15T16:43:37.478Z,6.07
2023-03-15T16:48:36.442Z,6.02
2023-03-15T16:53:36.419Z,6.07
2023-03-15T16:59:29.071Z,5.95
2023-03-15T17:03:34.024Z,5.81
2023-03-15T17:08:34.558Z,5.69
2023-03-15T17:13:32.265Z,5.55
2023-03-15T17:18:32.091Z,5.43
2023-03-15T17:23:31.689Z,5.32
2023-03-15T17:28:32.804Z,5.22
2023-03-15T17:33:29.164Z,5.16
2023-03-15T17:38:29.054Z,5.15
2023-03-15T17:43:28.655Z,5.07
2023-03-15T17:48:28.590Z,4.96
2023-03-15T17:53:25.394Z,4.92
2023-03-15T17:58:25.221Z,4.85
2023-03-15T17:59:46.969Z,4.81
2023-03-15T18:04:46.564Z,4.8
2023-03-15T18:09:56.235Z,4.73
2023-03-15T18:14:46.033Z,4.69
2023-03-15T18:19:55.820Z,4.61
2023-03-15T18:24:57.286Z,4.53
2023-03-15T18:29:54.078Z,4.33
2023-03-15T18:34:54.310Z,4.13
2023-03-15T18:39:56.117Z,3.86
2023-03-15T18:44:52.896Z,3.64
2023-03-15T18:49:55.459Z,3.5
2023-03-15T18:54:54.026Z,3.34
2023-03-15T18:59:07.030Z,3.25
2023-03-15T19:04:06.833Z,3.16
2023-03-15T19:09:06.521Z,3.05
2023-03-15T19:14:06.198Z,2.95
2023-03-15T19:19:03.651Z,2.81
2023-03-15T19:24:03.479Z,2.73
2023-03-15T19:29:02.738Z,2.71
2023-03-15T19:34:02.356Z,2.67
2023-03-15T19:39:01.934Z,2.58
2023-03-15T19:44:01.568Z,2.5
2023-03-15T19:49:01.688Z,2.39
2023-03-15T19:54:01.012Z,2.26
2023-03-15T19:58:48.080Z,2.11
2023-03-15T20:03:55.313Z,1.97
2023-03-15T20:08:54.389Z,1.89
2023-03-15T20:13:55.403Z,1.88
2023-03-15T20:18:52.356Z,1.81
2023-03-15T20:23:52.117Z,1.74
2023-03-15T20:28:53.659Z,1.64
2023-03-15T20:33:50.701Z,1.53
2023-03-15T20:38:50.422Z,1.38
2023-03-15T20:43:50.636Z,1.29
2023-03-15T20:48:38.180Z,1.17
2023-03-15T20:53:38.018Z,1.08
2023-03-15T20:58:37.020Z,0.94
2023-03-15T20:59:59.152Z,0.88
2023-03-15T21:04:58.601Z,0.85
2023-03-15T21:09:58.140Z,0.79
2023-03-15T21:14:58.308Z,0.75
2023-03-15T21:19:57.786Z,0.81
2023-03-15T21:24:58.981Z,0.73
2023-03-15T21:29:55.310Z,0.6
2023-03-15T21:34:55.369Z,0.52
2023-03-15T21:39:54.590Z,0.45
2023-03-15T21:44:54.435Z,0.35
2023-03-15T21:49:52.678Z,0.24
2023-03-15T21:54:52.782Z,0.15
2023-03-15T21:59:12.457Z,0.08
2023-03-15T22:04:13.798Z,0.02
2023-03-15T22:09:10.150Z,-0.06
2023-03-15T22:14:10.156Z,-0.11
2023-03-15T22:19:09.660Z,-0.14
2023-03-15T22:24:09.648Z,-0.18
2023-03-15T22:29:07.088Z,-0.16
2023-03-15T22:34:07.084Z,-0.21
2023-03-15T22:39:06.264Z,-0.29
2023-03-15T22:44:06.230Z,-0.33
2023-03-15T22:49:05.356Z,-0.4
2023-03-15T22:54:05.080Z,-0.43
2023-03-15T22:58:51.228Z,-0.41
2023-03-15T23:03:50.944Z,-0.4
2023-03-15T23:08:52.014Z,-0.39
2023-03-15T23:13:48.098Z,-0.41
2023-03-15T23:18:48.133Z,-0.48
2023-03-15T23:23:47.720Z,-0.5
2023-03-15T23:28:46.418Z,-0.54
2023-03-15T23:33:46.282Z,-0.61
2023-03-15T23:38:56.571Z,-0.58
2023-03-15T23:43:46.216Z,-0.61
2023-03-15T23:48:56.150Z,-0.65
2023-03-15T23:53:56.454Z,-0.68
2023-03-15T23:58:56.259Z,-0.7
